Time;durP1;ratioP1;P1;durP2;ratioP2;P2;SDS_P1;SDS_P2;PMS_P1;PMS_P2;Temp;Humidity;BMP_temperature;BMP_pressure;BME280_temperature;BME280_humidity;BME280_pressure;Samples;Min_cycle;Max_cycle;Signal;HPM_P1;HPM_P2
2023/05/26 00:01:14;;;;;;;7.35;3.75;;;19.70;51.20;;;;;;5057142;28;20230;-74
2023/05/26 00:03:45;;;;;;;8.25;3.95;;;19.70;51.20;;;;;;5074456;28;20190;-75
2023/05/26 00:06:12;;;;;;;7.80;3.92;;;19.70;51.20;;;;;;5073428;28;20593;-74
2023/05/26 00:08:39;;;;;;;7.68;3.35;;;19.70;51.20;;;;;;5092944;28;20247;-75
2023/05/26 00:11:06;;;;;;;7.45;4.00;;;19.60;51.10;;;;;;5097224;28;20221;-75
2023/05/26 00:13:34;;;;;;;5.85;3.15;;;19.60;51.10;;;;;;5114499;28;20682;-75
2023/05/26 00:16:01;;;;;;;4.80;3.10;;;19.60;51.10;;;;;;5115556;28;20227;-74
2023/05/26 00:18:28;;;;;;;6.57;3.65;;;19.60;51.10;;;;;;5114736;28;20558;-74
2023/05/26 00:20:57;;;;;;;8.55;3.67;;;19.60;51.10;;;;;;5115301;28;20233;-74
2023/05/26 00:23:24;;;;;;;6.68;3.08;;;19.60;51.20;;;;;;5114976;28;20212;-74
2023/05/26 00:25:51;;;;;;;9.23;3.15;;;19.60;51.20;;;;;;5114794;28;20766;-75
2023/05/26 00:28:18;;;;;;;8.05;3.33;;;19.60;51.20;;;;;;5115008;28;20189;-74
2023/05/26 00:30:45;;;;;;;5.57;3.00;;;19.60;51.80;;;;;;5114928;28;20209;-75
2023/05/26 00:33:13;;;;;;;5.63;3.30;;;19.60;51.20;;;;;;5114726;28;20194;-75
2023/05/26 00:35:40;;;;;;;5.72;3.55;;;19.60;51.20;;;;;;5114926;28;20213;-75
2023/05/26 00:38:09;;;;;;;7.70;3.70;;;19.60;51.20;;;;;;5096418;28;20658;-74
2023/05/26 00:40:36;;;;;;;6.07;3.78;;;19.60;51.20;;;;;;5114595;28;20251;-74
2023/05/26 00:43:03;;;;;;;6.55;3.20;;;19.60;51.20;;;;;;5114650;28;20189;-74
2023/05/26 00:45:30;;;;;;;8.32;3.83;;;19.50;51.20;;;;;;5114472;28;20185;-74
2023/05/26 00:47:57;;;;;;;6.40;3.47;;;19.60;51.20;;;;;;5114806;28;20186;-74
2023/05/26 00:50:24;;;;;;;6.57;3.08;;;19.60;51.90;;;;;;5114075;28;20217;-75
2023/05/26 00:52:52;;;;;;;7.47;3.63;;;19.50;51.20;;;;;;5114604;28;20194;-74
2023/05/26 00:55:23;;;;;;;6.70;3.33;;;19.60;51.30;;;;;;5114211;28;20276;-75
2023/05/26 00:57:50;;;;;;;5.07;3.60;;;19.60;51.20;;;;;;5114704;28;20682;-74
2023/05/26 01:00:19;;;;;;;5.45;3.30;;;19.50;51.20;;;;;;5114391;28;20212;-75
2023/05/26 01:02:49;;;;;;;5.55;3.33;;;19.50;51.20;;;;;;5114292;28;20213;-74
2023/05/26 01:05:16;;;;;;;7.32;3.35;;;19.50;51.20;;;;;;5114130;28;20189;-74
2023/05/26 01:07:43;;;;;;;8.48;3.28;;;19.60;51.30;;;;;;5114128;28;20266;-75
2023/05/26 01:10:11;;;;;;;5.40;3.10;;;19.50;51.20;;;;;;5113839;28;20219;-74
2023/05/26 01:12:45;;;;;;;9.18;3.90;;;19.50;51.20;;;;;;5113707;28;20220;-74
2023/05/26 01:15:14;;;;;;;7.10;3.53;;;19.50;51.20;;;;;;5114028;28;20241;-75
2023/05/26 01:17:48;;;;;;;8.35;3.40;;;19.50;51.20;;;;;;5114217;28;20220;-74
2023/05/26 01:20:20;;;;;;;8.65;3.53;;;19.50;51.30;;;;;;5113545;28;20209;-74
2023/05/26 01:23:07;;;;;;;7.70;3.17;;;19.50;51.30;;;;;;5095521;28;20213;-74
2023/05/26 01:25:49;;;;;;;6.30;3.30;;;19.50;51.30;;;;;;5113826;28;20219;-75
2023/05/26 01:28:21;;;;;;;7.65;3.17;;;19.50;51.30;;;;;;5113917;28;20327;-74
2023/05/26 01:30:50;;;;;;;7.68;3.00;;;19.50;51.30;;;;;;5113606;28;20192;-74
2023/05/26 01:33:17;;;;;;;7.18;3.40;;;19.50;51.30;;;;;;5113670;28;20189;-75
2023/05/26 01:35:44;;;;;;;7.20;3.22;;;19.40;51.20;;;;;;5113384;28;20193;-73
2023/05/26 01:38:12;;;;;;;7.22;3.00;;;19.50;51.30;;;;;;5113752;28;20185;-74
2023/05/26 01:40:42;;;;;;;11.90;3.40;;;19.40;51.20;;;;;;5113405;28;20221;-74
2023/05/26 01:43:14;;;;;;;7.78;3.15;;;19.50;51.30;;;;;;5113488;28;20217;-74
2023/05/26 01:45:51;;;;;;;8.38;3.25;;;19.40;51.20;;;;;;5113621;28;20223;-74
2023/05/26 01:48:19;;;;;;;7.63;3.17;;;19.40;51.20;;;;;;5113413;28;20277;-72
2023/05/26 01:50:50;;;;;;;8.40;3.60;;;19.40;51.20;;;;;;5112962;28;20787;-74
2023/05/26 01:53:21;;;;;;;8.88;3.67;;;19.40;51.30;;;;;;5113059;28;20659;-73
2023/05/26 01:55:50;;;;;;;9.75;3.20;;;19.40;51.20;;;;;;5113422;28;20189;-75
2023/05/26 01:58:18;;;;;;;5.25;3.05;;;19.40;51.20;;;;;;5107728;28;20219;-74
2023/05/26 02:00:52;;;;;;;8.57;3.22;;;19.40;51.30;;;;;;5113116;28;20585;-75
2023/05/26 02:03:20;;;;;;;7.00;3.25;;;19.40;51.30;;;;;;5112975;28;20213;-74
2023/05/26 02:05:47;;;;;;;8.45;3.20;;;19.40;51.30;;;;;;5112888;28;20193;-74
2023/05/26 02:08:14;;;;;;;8.10;3.28;;;19.40;51.20;;;;;;5073993;28;20241;-74
2023/05/26 02:10:41;;;;;;;10.55;3.45;;;19.40;51.20;;;;;;5072292;28;20191;-74
2023/05/26 02:13:08;;;;;;;9.07;3.28;;;19.40;51.20;;;;;;5072266;28;20236;-75
2023/05/26 02:15:35;;;;;;;9.88;3.38;;;19.40;51.30;;;;;;5072379;28;20213;-74
2023/05/26 02:18:04;;;;;;;10.75;3.88;;;19.40;51.30;;;;;;5072390;28;20221;-74
2023/05/26 02:20:31;;;;;;;7.30;3.13;;;19.40;51.30;;;;;;5072152;28;20210;-74
2023/05/26 02:22:58;;;;;;;10.18;3.40;;;19.40;51.30;;;;;;5054293;28;20222;-74
2023/05/26 02:25:25;;;;;;;8.57;3.45;;;19.40;51.30;;;;;;5072412;28;20187;-76
2023/05/26 02:27:52;;;;;;;11.15;3.88;;;19.40;51.20;;;;;;5071724;28;20225;-74
2023/05/26 02:30:19;;;;;;;11.98;3.53;;;19.40;51.20;;;;;;5072157;28;20206;-74
2023/05/26 02:32:46;;;;;;;9.20;3.42;;;19.30;51.20;;;;;;5071951;28;20215;-75
2023/05/26 02:35:15;;;;;;;8.52;3.03;;;19.30;51.20;;;;;;5072187;28;20189;-74
2023/05/26 02:37:42;;;;;;;10.23;3.78;;;19.30;51.20;;;;;;5072389;28;20215;-74
2023/05/26 02:40:10;;;;;;;10.43;3.15;;;19.30;51.20;;;;;;5071715;28;20704;-74
2023/05/26 02:42:37;;;;;;;9.20;3.30;;;19.30;51.20;;;;;;5072246;28;20264;-75
2023/05/26 02:45:05;;;;;;;10.40;3.45;;;19.30;51.20;;;;;;5072072;28;20190;-74
2023/05/26 02:47:31;;;;;;;11.38;3.65;;;19.30;51.20;;;;;;5072133;28;20214;-75
2023/05/26 02:49:58;;;;;;;12.02;3.67;;;19.30;51.20;;;;;;5071812;28;20244;-74
2023/05/26 02:52:27;;;;;;;10.52;3.53;;;19.30;51.20;;;;;;5053579;28;20221;-74
2023/05/26 02:54:54;;;;;;;11.35;4.13;;;19.30;51.20;;;;;;5053925;28;20191;-74
2023/05/26 02:57:21;;;;;;;9.60;3.63;;;19.30;51.20;;;;;;5072078;28;20214;-74
2023/05/26 02:59:48;;;;;;;9.88;3.42;;;19.30;51.20;;;;;;5071642;28;20692;-75
2023/05/26 03:02:15;;;;;;;11.68;3.63;;;19.30;51.20;;;;;;5071802;28;20226;-75
2023/05/26 03:04:42;;;;;;;13.15;3.40;;;19.30;51.20;;;;;;5071645;28;20266;-73
2023/05/26 03:07:09;;;;;;;11.45;3.78;;;19.30;51.30;;;;;;5071598;28;20303;-75
2023/05/26 03:09:38;;;;;;;12.48;3.70;;;19.30;51.20;;;;;;5053728;28;20182;-74
2023/05/26 03:12:06;;;;;;;11.13;3.80;;;19.30;51.20;;;;;;5071996;28;20301;-75
2023/05/26 03:14:34;;;;;;;12.52;3.78;;;19.30;51.20;;;;;;5071610;28;20193;-75
2023/05/26 03:17:01;;;;;;;11.52;3.50;;;19.30;51.20;;;;;;5053899;28;20611;-74
2023/05/26 03:19:28;;;;;;;11.90;3.33;;;19.30;51.20;;;;;;5071750;28;20202;-75
2023/05/26 03:21:56;;;;;;;11.90;3.35;;;19.30;51.20;;;;;;5071714;28;20237;-74
2023/05/26 03:24:23;;;;;;;14.20;4.03;;;19.30;51.20;;;;;;5071370;28;20183;-75
2023/05/26 03:26:52;;;;;;;14.38;4.05;;;19.30;51.20;;;;;;5071744;28;20234;-74
2023/05/26 03:29:19;;;;;;;13.70;3.60;;;19.30;51.20;;;;;;5053878;28;20195;-74
2023/05/26 03:31:47;;;;;;;13.18;3.95;;;19.30;51.20;;;;;;5071426;28;20246;-75
2023/05/26 03:34:14;;;;;;;14.05;4.28;;;19.20;51.30;;;;;;5053783;28;20201;-74
2023/05/26 03:36:45;;;;;;;9.80;4.32;;;19.30;51.20;;;;;;5053610;28;20584;-74
2023/05/26 03:39:12;;;;;;;14.50;3.60;;;19.30;51.20;;;;;;5054299;28;20187;-74
2023/05/26 03:41:39;;;;;;;10.80;3.70;;;19.30;51.20;;;;;;5071044;28;20802;-75
2023/05/26 03:44:08;;;;;;;14.13;4.60;;;19.20;51.20;;;;;;5053164;28;20563;-75
2023/05/26 03:46:35;;;;;;;18.30;4.07;;;19.20;51.20;;;;;;5072013;28;20191;-75
2023/05/26 03:49:02;;;;;;;14.55;4.18;;;19.20;51.20;;;;;;5075235;28;20183;-75
2023/05/26 03:51:30;;;;;;;11.05;3.42;;;19.20;51.20;;;;;;5074629;28;20227;-75
2023/05/26 03:53:57;;;;;;;13.50;3.90;;;19.20;51.20;;;;;;5074784;28;20696;-75
2023/05/26 03:56:25;;;;;;;17.50;4.00;;;19.20;51.20;;;;;;5074876;28;20191;-75
2023/05/26 03:58:51;;;;;;;15.95;3.80;;;19.20;51.20;;;;;;5075406;28;20272;-74
2023/05/26 04:01:20;;;;;;;13.05;3.45;;;19.20;51.20;;;;;;5074646;28;20214;-75
2023/05/26 04:03:47;;;;;;;14.38;4.20;;;19.20;51.20;;;;;;5074546;28;20244;-73
2023/05/26 04:06:14;;;;;;;13.63;3.70;;;19.20;51.20;;;;;;5074910;28;20194;-73
2023/05/26 04:08:41;;;;;;;15.38;4.20;;;19.20;51.20;;;;;;5056765;28;20214;-74
2023/05/26 04:11:09;;;;;;;20.63;4.22;;;19.20;51.20;;;;;;5074684;28;20195;-74
2023/05/26 04:13:39;;;;;;;12.18;3.75;;;19.20;51.20;;;;;;5074593;28;20241;-74
2023/05/26 04:16:06;;;;;;;15.98;4.05;;;19.20;51.80;;;;;;5074353;28;20694;-74
2023/05/26 04:18:36;;;;;;;11.35;3.75;;;19.20;51.20;;;;;;5074712;28;20221;-74
2023/05/26 04:21:03;;;;;;;13.55;3.97;;;19.20;51.20;;;;;;5074257;28;20210;-74
2023/05/26 04:23:30;;;;;;;17.02;5.45;;;19.20;51.20;;;;;;5074477;28;20219;-74
2023/05/26 04:25:57;;;;;;;14.75;4.28;;;19.20;51.20;;;;;;5074406;28;20596;-74
2023/05/26 04:28:25;;;;;;;14.60;4.28;;;19.20;51.20;;;;;;5074175;28;20268;-75
2023/05/26 04:30:52;;;;;;;19.52;4.00;;;19.10;51.10;;;;;;5074126;28;20640;-75
2023/05/26 04:33:20;;;;;;;11.13;3.70;;;19.20;51.20;;;;;;5073834;28;20219;-74
2023/05/26 04:35:49;;;;;;;15.10;4.30;;;19.20;51.20;;;;;;5074425;28;20270;-74
2023/05/26 04:38:16;;;;;;;11.25;3.67;;;19.20;51.20;;;;;;5069947;28;20302;-75
2023/05/26 04:40:44;;;;;;;16.52;3.92;;;19.20;51.20;;;;;;5074169;28;20186;-74
2023/05/26 04:43:11;;;;;;;12.95;4.03;;;19.10;51.10;;;;;;5056435;28;20252;-75
2023/05/26 04:45:40;;;;;;;15.25;3.80;;;19.20;51.20;;;;;;5074243;28;20234;-74
2023/05/26 04:48:08;;;;;;;12.02;3.58;;;19.10;51.10;;;;;;5074090;28;20229;-74
2023/05/26 04:50:38;;;;;;;14.77;3.83;;;19.10;51.10;;;;;;5052489;28;20228;-74
2023/05/26 04:53:07;;;;;;;14.30;4.00;;;19.20;51.20;;;;;;5053879;28;20226;-74
2023/05/26 04:55:35;;;;;;;18.40;4.55;;;19.10;51.10;;;;;;5053952;28;20246;-74
2023/05/26 04:58:03;;;;;;;15.95;3.83;;;19.10;51.10;;;;;;5052590;28;20215;-74
2023/05/26 05:00:31;;;;;;;15.57;4.32;;;19.10;51.10;;;;;;5053328;28;20665;-74
2023/05/26 05:02:59;;;;;;;16.10;4.15;;;19.10;51.10;;;;;;5053531;28;20235;-74
2023/05/26 05:05:26;;;;;;;11.15;3.40;;;19.20;51.20;;;;;;5052561;28;20226;-74
2023/05/26 05:07:53;;;;;;;15.93;4.28;;;19.10;51.10;;;;;;5053468;28;20215;-74
2023/05/26 05:10:21;;;;;;;13.68;3.63;;;19.10;51.10;;;;;;5052272;28;20211;-74
2023/05/26 05:12:48;;;;;;;14.75;4.07;;;19.10;51.10;;;;;;5053467;28;20223;-74
2023/05/26 05:15:15;;;;;;;11.85;4.28;;;19.10;51.70;;;;;;5053594;28;20198;-74
2023/05/26 05:17:42;;;;;;;14.48;4.07;;;19.10;51.10;;;;;;5053507;28;20302;-74
2023/05/26 05:20:10;;;;;;;17.15;3.70;;;19.10;51.10;;;;;;5053510;28;20198;-74
2023/05/26 05:22:37;;;;;;;16.60;4.95;;;19.10;51.10;;;;;;5053058;28;20231;-73
2023/05/26 05:25:05;;;;;;;16.30;4.07;;;19.10;51.10;;;;;;5053063;28;20192;-75
2023/05/26 05:27:33;;;;;;;11.10;3.92;;;19.10;51.10;;;;;;5053079;28;20191;-74
2023/05/26 05:30:00;;;;;;;13.57;3.88;;;19.10;51.10;;;;;;5052877;28;20560;-73
2023/05/26 05:32:27;;;;;;;17.08;3.70;;;19.10;51.10;;;;;;5053008;28;20200;-74
2023/05/26 05:34:55;;;;;;;15.57;3.95;;;19.10;51.10;;;;;;5052963;28;20196;-74
2023/05/26 05:37:22;;;;;;;13.25;3.85;;;19.10;51.10;;;;;;5053239;28;20329;-75
2023/05/26 05:39:49;;;;;;;18.02;4.82;;;19.10;51.10;;;;;;5053080;28;20593;-75
2023/05/26 05:42:16;;;;;;;14.27;4.00;;;19.10;51.10;;;;;;5052922;28;20235;-74
2023/05/26 05:44:44;;;;;;;19.02;4.75;;;19.00;51.00;;;;;;5052707;28;20581;-74
2023/05/26 05:47:11;;;;;;;16.48;4.28;;;19.10;51.10;;;;;;5053046;28;20188;-74
2023/05/26 05:49:38;;;;;;;12.43;3.55;;;19.10;51.10;;;;;;5053465;28;20223;-75
2023/05/26 05:52:05;;;;;;;14.35;3.65;;;19.10;51.10;;;;;;5072821;28;20191;-74
2023/05/26 05:54:33;;;;;;;16.00;4.22;;;19.10;51.10;;;;;;5072063;28;20211;-75
2023/05/26 05:57:00;;;;;;;12.63;4.15;;;19.10;51.10;;;;;;5037529;28;20546;-75
2023/05/26 05:59:27;;;;;;;11.25;3.38;;;19.10;51.10;;;;;;5072342;28;20583;-75
2023/05/26 06:01:55;;;;;;;13.75;4.03;;;19.10;51.10;;;;;;5072506;28;20318;-74
2023/05/26 06:04:22;;;;;;;14.82;4.00;;;19.10;51.10;;;;;;5071912;28;20211;-75
2023/05/26 06:06:51;;;;;;;14.60;4.63;;;19.10;51.10;;;;;;5072085;28;20578;-74
2023/05/26 06:09:18;;;;;;;15.15;3.95;;;19.00;51.10;;;;;;5054178;28;20564;-74
2023/05/26 06:11:45;;;;;;;15.18;4.13;;;19.00;51.00;;;;;;5072551;28;20281;-75
2023/05/26 06:14:13;;;;;;;14.32;4.05;;;19.00;51.00;;;;;;5072518;28;20300;-75
2023/05/26 06:16:39;;;;;;;13.60;4.03;;;19.10;51.20;;;;;;5072408;28;20227;-74
2023/05/26 06:19:08;;;;;;;18.25;3.80;;;19.10;51.20;;;;;;5072657;28;20214;-74
2023/05/26 06:21:35;;;;;;;16.70;4.07;;;19.00;51.00;;;;;;5054359;28;20210;-75
2023/05/26 06:24:02;;;;;;;17.02;4.40;;;19.00;51.00;;;;;;5071783;28;20217;-74
2023/05/26 06:26:29;;;;;;;19.95;4.10;;;19.00;51.00;;;;;;5072224;28;20186;-76
2023/05/26 06:28:56;;;;;;;14.73;5.13;;;19.00;51.00;;;;;;5054476;28;20232;-75
2023/05/26 06:31:23;;;;;;;11.18;3.92;;;19.00;51.00;;;;;;5072015;28;20199;-74
2023/05/26 06:33:50;;;;;;;16.58;4.18;;;19.00;51.00;;;;;;5071704;28;20726;-75
2023/05/26 06:36:19;;;;;;;13.13;4.65;;;19.00;51.10;;;;;;5071860;28;20540;-75
2023/05/26 06:38:46;;;;;;;12.63;4.28;;;19.00;51.10;;;;;;5072177;28;20238;-75
2023/05/26 06:41:13;;;;;;;14.77;4.57;;;19.00;51.10;;;;;;5072110;28;20187;-75
2023/05/26 06:43:40;;;;;;;14.98;4.43;;;19.00;51.10;;;;;;5081896;28;20721;-76
2023/05/26 06:46:07;;;;;;;18.98;4.85;;;19.00;51.10;;;;;;5073808;28;20198;-75
2023/05/26 06:48:34;;;;;;;17.42;4.60;;;19.00;51.10;;;;;;5091537;28;20213;-75
2023/05/26 06:51:01;;;;;;;13.40;4.22;;;19.00;51.10;;;;;;5082536;28;20716;-75
2023/05/26 06:53:30;;;;;;;17.20;4.80;;;19.00;51.80;;;;;;5070999;28;20736;-75
2023/05/26 06:55:58;;;;;;;17.45;4.70;;;19.00;51.10;;;;;;5071109;28;20194;-75
2023/05/26 06:58:25;;;;;;;14.55;5.07;;;19.00;51.20;;;;;;5071060;28;20563;-75
2023/05/26 07:01:01;;;;;;;11.40;4.35;;;19.00;51.20;;;;;;5077433;28;20269;-75
2023/05/26 07:03:28;;;;;;;17.13;4.22;;;19.00;51.20;;;;;;5091059;28;20287;-75
2023/05/26 07:05:56;;;;;;;14.50;4.75;;;19.00;51.20;;;;;;5091433;28;20182;-77
2023/05/26 07:08:24;;;;;;;13.02;4.78;;;19.00;51.20;;;;;;5091196;28;20249;-77
2023/05/26 07:10:52;;;;;;;14.82;4.75;;;19.00;51.20;;;;;;5091128;28;20277;-76
2023/05/26 07:13:20;;;;;;;25.30;4.93;;;19.00;51.20;;;;;;5091323;28;20305;-76
2023/05/26 07:15:47;;;;;;;14.23;4.93;;;19.00;51.20;;;;;;5073557;28;20190;-77
2023/05/26 07:18:15;;;;;;;16.95;4.57;;;19.10;51.30;;;;;;5090969;28;20220;-76
2023/05/26 07:20:42;;;;;;;13.32;4.78;;;19.10;51.40;;;;;;5072873;28;20258;-76
2023/05/26 07:23:09;;;;;;;20.17;5.07;;;19.10;51.40;;;;;;5094477;28;20421;-77
2023/05/26 07:25:36;;;;;;;20.48;4.95;;;19.10;51.40;;;;;;5095262;28;20193;-77
2023/05/26 07:28:05;;;;;;;20.83;5.07;;;19.10;51.40;;;;;;5095181;28;20269;-74
2023/05/26 07:30:32;;;;;;;18.77;5.43;;;19.10;51.40;;;;;;5095144;28;20615;-75
2023/05/26 07:32:59;;;;;;;17.75;5.28;;;19.10;51.40;;;;;;5094877;28;20226;-76
2023/05/26 07:35:26;;;;;;;28.35;5.45;;;19.10;51.50;;;;;;5094997;28;20221;-75
2023/05/26 07:37:53;;;;;;;41.75;6.13;;;19.10;51.40;;;;;;5082398;28;20729;-76
2023/05/26 07:40:20;;;;;;;16.50;5.78;;;19.10;51.50;;;;;;5093081;28;20565;-75
2023/05/26 07:42:47;;;;;;;19.92;5.63;;;19.10;51.50;;;;;;5093685;28;20221;-75
2023/05/26 07:45:16;;;;;;;18.02;5.57;;;19.10;51.40;;;;;;5094490;28;20778;-78
2023/05/26 07:47:43;;;;;;;21.98;5.30;;;19.20;51.50;;;;;;5094730;28;20182;-77
2023/05/26 07:50:10;;;;;;;17.13;4.93;;;19.20;51.50;;;;;;5094488;28;20316;-80
2023/05/26 07:52:37;;;;;;;18.60;4.93;;;19.20;51.50;;;;;;5059222;28;20198;-78
2023/05/26 07:55:05;;;;;;;16.08;4.68;;;19.20;51.50;;;;;;5094530;28;20218;-79
2023/05/26 07:57:32;;;;;;;22.65;5.05;;;19.20;51.50;;;;;;5060172;28;20194;-77
2023/05/26 07:59:59;;;;;;;19.27;5.95;;;19.20;51.50;;;;;;5076172;28;20225;-79
2023/05/26 08:02:28;;;;;;;23.15;6.43;;;19.20;51.50;;;;;;5076122;28;20222;-75
2023/05/26 08:04:55;;;;;;;13.50;5.32;;;19.20;51.50;;;;;;5094399;28;20218;-76
2023/05/26 08:07:23;;;;;;;19.52;4.85;;;19.30;51.60;;;;;;5094636;28;20190;-77
2023/05/26 08:09:52;;;;;;;13.30;4.80;;;19.20;51.50;;;;;;5094088;28;20260;-78
2023/05/26 08:12:19;;;;;;;17.15;5.80;;;19.30;51.60;;;;;;5094250;28;20197;-77
2023/05/26 08:14:46;;;;;;;15.55;5.43;;;19.30;51.60;;;;;;5094605;28;20214;-79
2023/05/26 08:17:13;;;;;;;20.38;5.72;;;19.30;52.20;;;;;;5094628;28;20640;-78
2023/05/26 08:19:42;;;;;;;20.23;5.53;;;19.30;51.60;;;;;;5075646;28;20305;-78
2023/05/26 08:22:09;;;;;;;18.50;5.65;;;19.30;51.60;;;;;;5090437;28;20221;-77
2023/05/26 08:24:36;;;;;;;17.80;5.90;;;19.30;51.50;;;;;;5079520;28;20719;-78
2023/05/26 08:27:03;;;;;;;18.63;5.93;;;19.30;51.60;;;;;;5070851;28;20225;-78
2023/05/26 08:29:30;;;;;;;16.63;6.13;;;19.30;51.50;;;;;;5079202;28;20221;-78
2023/05/26 08:31:57;;;;;;;20.20;5.30;;;19.40;51.60;;;;;;5091206;28;20204;-77
2023/05/26 08:34:24;;;;;;;18.42;5.63;;;19.40;51.60;;;;;;5085034;28;20298;-78
2023/05/26 08:36:53;;;;;;;16.98;5.28;;;19.40;51.50;;;;;;5070136;28;20367;-78
2023/05/26 08:39:20;;;;;;;18.48;5.55;;;19.40;51.50;;;;;;5070596;28;20229;-79
2023/05/26 08:41:53;;;;;;;21.73;6.72;;;19.40;51.50;;;;;;5068849;28;20278;-78
2023/05/26 08:44:21;;;;;;;15.48;5.35;;;19.40;51.60;;;;;;5068618;28;20230;-77
2023/05/26 08:46:55;;;;;;;19.02;6.22;;;19.40;51.40;;;;;;5077270;28;20347;-77
2023/05/26 08:49:23;;;;;;;16.33;5.93;;;19.40;51.50;;;;;;5071713;28;20225;-78
2023/05/26 08:52:00;;;;;;;24.15;6.47;;;19.40;51.40;;;;;;5090472;28;20238;-78
2023/05/26 08:54:27;;;;;;;19.92;5.70;;;19.50;51.50;;;;;;5089801;28;20232;-77
2023/05/26 08:56:57;;;;;;;17.63;5.97;;;19.50;51.40;;;;;;5071947;28;20190;-77
2023/05/26 08:59:25;;;;;;;17.13;5.88;;;19.50;51.50;;;;;;5071289;28;20218;-77
2023/05/26 09:01:52;;;;;;;18.75;5.80;;;19.50;51.40;;;;;;5090037;28;20190;-78
2023/05/26 09:04:18;;;;;;;16.15;5.55;;;19.50;51.50;;;;;;5071487;28;20226;-77
2023/05/26 09:06:46;;;;;;;18.08;5.45;;;19.50;51.40;;;;;;5069455;28;20653;-77
2023/05/26 09:09:17;;;;;;;20.40;6.07;;;19.50;51.50;;;;;;5069436;28;20309;-78
2023/05/26 09:11:46;;;;;;;16.73;5.13;;;19.50;51.50;;;;;;5069519;28;20199;-77
2023/05/26 09:14:13;;;;;;;16.70;5.60;;;19.60;51.50;;;;;;5085301;28;20197;-77
2023/05/26 09:16:40;;;;;;;15.07;5.47;;;19.60;51.60;;;;;;5070461;28;20187;-76
2023/05/26 09:19:13;;;;;;;21.10;5.03;;;19.60;51.50;;;;;;5069662;28;20191;-77
2023/05/26 09:21:46;;;;;;;18.38;5.15;;;19.60;51.50;;;;;;5070331;28;20227;-75
2023/05/26 09:24:16;;;;;;;18.73;6.40;;;19.60;51.50;;;;;;5069563;28;20729;-76
2023/05/26 09:26:46;;;;;;;22.48;5.93;;;19.60;51.60;;;;;;5085938;28;20202;-77
2023/05/26 09:29:14;;;;;;;17.13;6.60;;;19.60;51.50;;;;;;5074117;28;20191;-76
2023/05/26 09:31:43;;;;;;;16.00;5.50;;;19.60;51.60;;;;;;5085107;28;20205;-76
2023/05/26 09:34:11;;;;;;;16.25;5.57;;;19.70;51.60;;;;;;5082774;28;20568;-78
2023/05/26 09:36:39;;;;;;;15.60;5.18;;;19.70;51.60;;;;;;5089562;28;20189;-77
2023/05/26 09:39:08;;;;;;;17.33;5.28;;;19.70;51.50;;;;;;5083971;28;20690;-77
2023/05/26 09:41:38;;;;;;;22.60;6.10;;;19.70;51.40;;;;;;5068789;28;20230;-77
2023/05/26 09:44:09;;;;;;;15.43;5.03;;;19.70;51.60;;;;;;5068588;28;20215;-77
2023/05/26 09:46:37;;;;;;;20.17;5.60;;;19.80;51.40;;;;;;5068981;28;20695;-76
2023/05/26 09:49:08;;;;;;;15.70;5.30;;;19.80;51.30;;;;;;5068917;28;20564;-77
2023/05/26 09:51:36;;;;;;;13.05;5.03;;;19.80;51.30;;;;;;5050596;28;20295;-76
2023/05/26 09:54:03;;;;;;;14.55;5.60;;;19.80;51.20;;;;;;5081149;28;20723;-77
2023/05/26 09:56:34;;;;;;;19.52;6.22;;;19.90;51.30;;;;;;5089251;28;20225;-78
2023/05/26 09:59:05;;;;;;;19.52;5.72;;;19.90;51.30;;;;;;5076873;28;20199;-75
2023/05/26 10:01:35;;;;;;;22.67;6.03;;;19.90;51.30;;;;;;5017160;28;20222;-77
2023/05/26 10:04:03;;;;;;;22.63;5.85;;;19.90;51.30;;;;;;5062220;28;20714;-76
2023/05/26 10:06:32;;;;;;;21.70;5.55;;;19.90;51.30;;;;;;5088743;28;20228;-80
2023/05/26 10:09:00;;;;;;;22.48;5.80;;;19.90;51.30;;;;;;5079883;28;20203;-77
2023/05/26 10:11:30;;;;;;;21.08;6.15;;;20.00;51.30;;;;;;5077085;28;20334;-77
2023/05/26 10:13:58;;;;;;;20.52;5.80;;;20.00;51.30;;;;;;5050887;28;20611;-77
2023/05/26 10:16:27;;;;;;;22.38;5.60;;;20.00;51.30;;;;;;5082982;28;20218;-77
2023/05/26 10:18:54;;;;;;;19.55;5.35;;;20.00;51.30;;;;;;5082306;28;20289;-77
2023/05/26 10:21:25;;;;;;;17.38;5.85;;;20.10;51.30;;;;;;5088422;28;20286;-76
2023/05/26 10:24:00;;;;;;;20.90;5.50;;;20.10;51.30;;;;;;5087230;28;20214;-78
2023/05/26 10:26:34;;;;;;;18.33;5.32;;;20.00;51.10;;;;;;5088051;28;20710;-77
2023/05/26 10:29:05;;;;;;;20.15;4.78;;;20.00;51.00;;;;;;5083584;28;20205;-77
2023/05/26 10:31:36;;;;;;;22.10;5.70;;;20.00;51.00;;;;;;5088823;28;20217;-77
2023/05/26 10:34:13;;;;;;;18.20;5.20;;;20.00;51.00;;;;;;5087868;28;20522;-78
2023/05/26 10:36:41;;;;;;;18.85;6.03;;;20.00;50.90;;;;;;5088290;28;20218;-76
2023/05/26 10:39:11;;;;;;;14.48;5.55;;;20.10;51.00;;;;;;5088066;28;20200;-77
2023/05/26 10:41:40;;;;;;;20.60;5.93;;;20.10;51.00;;;;;;5088447;28;20230;-76
2023/05/26 10:44:07;;;;;;;21.23;5.28;;;20.00;50.90;;;;;;5087888;28;20220;-77
2023/05/26 10:46:40;;;;;;;18.40;4.88;;;20.10;51.00;;;;;;5088436;28;20222;-77
2023/05/26 10:49:21;;;;;;;21.45;5.07;;;20.10;51.00;;;;;;5088205;28;20182;-77
2023/05/26 10:51:53;;;;;;;18.63;5.70;;;20.10;51.00;;;;;;5088099;28;20234;-76
2023/05/26 10:54:22;;;;;;;18.65;5.72;;;20.10;51.20;;;;;;5087785;28;20201;-76
2023/05/26 10:56:51;;;;;;;20.90;5.45;;;20.10;51.00;;;;;;5089834;28;20218;-77
2023/05/26 10:59:24;;;;;;;15.50;4.75;;;20.10;51.00;;;;;;5091903;28;20190;-77
2023/05/26 11:01:54;;;;;;;16.50;5.20;;;20.10;51.00;;;;;;5088985;28;20739;-78
2023/05/26 11:04:21;;;;;;;16.02;5.35;;;20.20;51.10;;;;;;5091444;28;20718;-77
2023/05/26 11:06:50;;;;;;;15.45;5.18;;;20.20;51.00;;;;;;5091822;28;20218;-76
2023/05/26 11:09:20;;;;;;;17.17;4.63;;;20.20;51.00;;;;;;5086177;28;20243;-77
2023/05/26 11:11:53;;;;;;;20.48;5.10;;;20.20;51.00;;;;;;5090727;28;20224;-77
2023/05/26 11:14:25;;;;;;;18.65;5.88;;;20.20;51.00;;;;;;5083750;28;20187;-76
2023/05/26 11:16:57;;;;;;;18.40;5.55;;;20.20;50.90;;;;;;5072994;28;20699;-77
2023/05/26 11:19:33;;;;;;;15.63;5.43;;;20.30;51.00;;;;;;5086043;28;20182;-76
2023/05/26 11:22:01;;;;;;;16.17;5.20;;;20.30;50.90;;;;;;5083894;28;20312;-76
2023/05/26 11:24:28;;;;;;;19.50;5.35;;;20.30;51.00;;;;;;5084524;28;20215;-77
2023/05/26 11:26:55;;;;;;;17.05;5.03;;;20.30;50.80;;;;;;5082378;28;20218;-76
2023/05/26 11:29:23;;;;;;;16.73;5.25;;;20.30;50.90;;;;;;5103116;28;20564;-78
2023/05/26 11:31:51;;;;;;;19.45;5.32;;;20.30;50.80;;;;;;5091603;28;20222;-77
2023/05/26 11:34:21;;;;;;;24.05;5.43;;;20.40;50.80;;;;;;5067285;28;20665;-76
2023/05/26 11:36:51;;;;;;;13.68;5.22;;;20.30;50.80;;;;;;5084308;28;20281;-78
2023/05/26 11:39:18;;;;;;;18.08;5.15;;;20.40;50.80;;;;;;5073369;28;20657;-77
2023/05/26 11:41:46;;;;;;;23.15;5.07;;;20.40;50.80;;;;;;5071430;28;20298;-77
2023/05/26 11:44:15;;;;;;;21.70;5.13;;;20.40;50.80;;;;;;5089178;28;20224;-76
2023/05/26 11:46:43;;;;;;;16.75;5.40;;;20.40;50.70;;;;;;5091225;28;20222;-76
2023/05/26 11:49:14;;;;;;;19.50;5.32;;;20.40;50.70;;;;;;5064300;28;20189;-76
2023/05/26 11:51:48;;;;;;;17.45;5.25;;;20.40;50.60;;;;;;5075787;28;20261;-76
2023/05/26 11:54:16;;;;;;;18.65;5.22;;;20.40;50.60;;;;;;5087696;28;20219;-76
2023/05/26 11:56:44;;;;;;;16.52;5.65;;;20.40;50.60;;;;;;5086602;28;20790;-76
2023/05/26 11:59:16;;;;;;;14.65;4.70;;;20.50;50.60;;;;;;5079875;28;20194;-77
2023/05/26 12:01:43;;;;;;;22.83;6.05;;;20.50;50.60;;;;;;5082718;28;20282;-79
2023/05/26 12:04:10;;;;;;;19.15;6.20;;;20.50;50.60;;;;;;5090873;28;20206;-80
2023/05/26 12:06:41;;;;;;;13.07;5.18;;;20.50;50.60;;;;;;5082033;28;20226;-77
2023/05/26 12:09:20;;;;;;;17.88;5.28;;;20.40;50.50;;;;;;5084202;28;20195;-77
2023/05/26 12:11:50;;;;;;;24.30;5.65;;;20.50;50.60;;;;;;5070550;28;20252;-78
2023/05/26 12:14:17;;;;;;;16.52;4.68;;;20.40;50.50;;;;;;5070087;28;20320;-79
2023/05/26 12:16:45;;;;;;;16.45;5.35;;;20.40;50.50;;;;;;5076568;28;20222;-77
2023/05/26 12:19:14;;;;;;;18.05;5.03;;;20.40;50.60;;;;;;5083450;28;20932;-77
2023/05/26 12:21:42;;;;;;;13.40;4.47;;;20.40;50.60;;;;;;5080952;28;20219;-79
2023/05/26 12:24:12;;;;;;;17.95;5.00;;;20.40;50.70;;;;;;5084391;28;20216;-79
2023/05/26 12:26:39;;;;;;;24.35;5.72;;;20.40;50.70;;;;;;5075498;28;20219;-78
2023/05/26 12:29:09;;;;;;;18.27;5.03;;;20.40;50.70;;;;;;5074713;28;20274;-76
2023/05/26 12:31:44;;;;;;;15.18;5.40;;;20.40;50.60;;;;;;5070053;28;20807;-78
2023/05/26 12:34:13;;;;;;;20.67;5.53;;;20.50;50.70;;;;;;5071940;28;20186;-77
2023/05/26 12:36:41;;;;;;;16.38;5.28;;;20.60;50.60;;;;;;5089169;28;20233;-76
2023/05/26 12:39:08;;;;;;;16.48;4.95;;;20.60;50.50;;;;;;5070304;28;20226;-79
2023/05/26 12:41:40;;;;;;;16.52;5.28;;;20.60;50.30;;;;;;5075060;28;21049;-77
2023/05/26 12:44:07;;;;;;;21.25;5.03;;;20.70;51.00;;;;;;5074682;28;20214;-76